Draffin, Kentucky
Current Conditions -  °F | °C
As of 12:55 AM on Wednesday 22 Oct 2014 (Local Time) from KPBX Reporting Station
Overcast Overcast  
Wind Chill:   Ceiling: 1000
Heat Index:   Visibility: 10mi
Dew Point:   Wind: 3mph
Humidity: 93%   Direction: 350°N
Pressure: 30.11"   Gusts: NA
Location:  37.3089°N, 82.3418°W
Report Text: KPBX 220455Z AUTO 35003KT 10SM OVC010 07/06 A3011 RMK AO2 T00670057 401370067
Loading
Personal Weather Stations






























Interactive Weather Map
Tropical Storm Tracking
New forecast layout! Learn more

10-Day Weather Forecast

Advertisements
Track Severe Weather on mobile